createdAt,value
2018-11-04T00:01:58.000Z,1014.93
2018-11-04T00:11:58.000Z,1014.916
2018-11-04T00:21:58.000Z,1014.778
2018-11-04T00:32:01.000Z,1014.619
2018-11-04T00:41:58.000Z,1014.558
2018-11-04T00:51:58.000Z,1014.4
2018-11-04T01:01:58.000Z,1014.301
2018-11-04T01:11:58.000Z,1014.167
2018-11-04T01:21:58.000Z,1013.961
2018-11-04T01:31:58.000Z,1013.812
2018-11-04T01:41:58.000Z,1013.751
2018-11-04T01:51:58.000Z,1013.668
2018-11-04T02:01:58.000Z,1013.519
2018-11-04T02:11:58.000Z,1013.355
2018-11-04T02:21:58.000Z,1013.175
2018-11-04T02:31:58.000Z,1012.969
2018-11-04T02:41:58.000Z,1012.91
2018-11-04T02:51:58.000Z,1012.857
2018-11-04T03:01:58.000Z,1012.811
2018-11-04T03:11:58.000Z,1012.541
2018-11-04T03:21:58.000Z,1012.428
2018-11-04T03:31:58.000Z,1012.35
2018-11-04T03:41:58.000Z,1012.22
2018-11-04T03:51:58.000Z,1012.349
2018-11-04T04:01:58.000Z,1012.341
2018-11-04T04:11:58.000Z,1012.285
2018-11-04T04:21:58.000Z,1012.243
2018-11-04T04:31:58.000Z,1012.238
2018-11-04T04:41:58.000Z,1012.067
2018-11-04T04:51:58.000Z,1011.927
2018-11-04T05:01:58.000Z,1011.982
2018-11-04T05:11:58.000Z,1011.817
2018-11-04T05:21:58.000Z,1011.802
2018-11-04T05:31:58.000Z,1011.786
2018-11-04T05:41:58.000Z,1011.803
2018-11-04T05:51:58.000Z,1011.767
2018-11-04T06:01:58.000Z,1011.726
2018-11-04T06:11:58.000Z,1011.7
2018-11-04T06:21:58.000Z,1011.672
2018-11-04T06:31:58.000Z,1011.656
2018-11-04T06:41:58.000Z,1011.581
2018-11-04T06:51:58.000Z,1011.65
2018-11-04T07:01:58.000Z,1011.67
2018-11-04T07:11:59.000Z,1011.591
2018-11-04T07:21:58.000Z,1011.493
2018-11-04T07:31:58.000Z,1011.508
2018-11-04T07:41:58.000Z,1011.527
2018-11-04T07:51:59.000Z,1011.454
2018-11-04T08:01:59.000Z,1011.386
2018-11-04T08:11:59.000Z,1011.292
2018-11-04T08:21:59.000Z,1011.234
2018-11-04T08:31:59.000Z,1011.192
2018-11-04T08:41:59.000Z,1011.074
2018-11-04T08:51:59.000Z,1011.027
2018-11-04T09:01:59.000Z,1010.929
2018-11-04T09:11:59.000Z,1010.847
2018-11-04T09:21:59.000Z,1010.72
2018-11-04T09:31:59.000Z,1010.714
2018-11-04T09:41:59.000Z,1010.624
2018-11-04T09:51:59.000Z,1010.607
2018-11-04T10:01:59.000Z,1010.608
2018-11-04T10:11:59.000Z,1010.595
2018-11-04T10:21:59.000Z,1010.629
2018-11-04T20:25:03.000Z,1006.403
2018-11-04T20:35:03.000Z,1006.214
2018-11-04T20:45:03.000Z,1006.293
2018-11-04T20:55:03.000Z,1006.031
2018-11-04T21:05:03.000Z,1005.99
2018-11-04T21:15:03.000Z,1006.018
2018-11-04T21:25:03.000Z,1006.098
2018-11-04T21:35:03.000Z,1005.995
2018-11-04T21:45:03.000Z,1005.845
2018-11-04T21:55:07.000Z,1005.814
2018-11-04T22:05:04.000Z,1005.674
2018-11-04T22:15:03.000Z,1005.431
2018-11-04T22:35:04.000Z,1005.502
2018-11-04T22:45:03.000Z,1005.44
2018-11-04T22:55:03.000Z,1005.387
2018-11-04T23:05:03.000Z,1005.276
2018-11-04T23:15:03.000Z,1005.18
2018-11-04T23:25:03.000Z,1005.056
2018-11-04T23:35:03.000Z,1005.049
2018-11-04T23:45:03.000Z,1005.032
2018-11-04T23:55:03.000Z,1004.981
